• Join FlightAware (Why Join?)
  • Login
  • US Flag 
02:36AM EST


 

Airport Tracker/Info


-or-


 

Live Flight TrackerFlight Track Log ✈ ASA525 ✈ 03-Jul-2013 ✈ KBUR - KSEA

Flight Track Log - Related Links

Times and Time Zones

All times are in EDT time to prevent confusion due to time zone crossing. See the ASA525 flight status page for this flight to view local times or setup timezone preferences in your user account.

Time Position Orientation Groundspeed Altitude Reporting Facility
EDT Latitude Longitude Course Direction KTS MPH feet Rate Location/Type
02:10PM 34.1833 -118.3667 205° Southwest 168 193 1,900  Level Southern California TRACON
02:10PM 34.1639 -118.3778 205° Southwest 188 216 2,600 1,920 Climbing Los Angeles Center
02:12PM 34.1908 -118.4339 300° West 227 261 5,000 1,800 Climbing Los Angeles Center
02:13PM 34.2358 -118.4719 325° Northwest 244 281 6,400 2,220 Climbing Los Angeles Center
02:14PM 34.3306 -118.5369 330° Northwest 282 325 9,700 2,880 Climbing Los Angeles Center
02:15PM 34.4061 -118.5886 331° Northwest 308 354 12,400 2,460 Climbing Los Angeles Center
02:16PM 34.4850 -118.6425 331° Northwest 325 374 14,800 2,400 Climbing Los Angeles Center
02:17PM 34.5750 -118.7036 331° Northwest 369 425 17,400 2,460 Climbing Los Angeles Center
02:18PM 34.6694 -118.7714 329° Northwest 401 461 19,900 2,700 Climbing Los Angeles Center
02:19PM 34.7889 -118.8531 331° Northwest 410 472 23,100 2,640 Climbing Los Angeles Center
02:20PM 34.9050 -118.8975 343° North 425 489 25,400 2,040 Climbing Los Angeles Center
02:21PM 35.0228 -118.9386 344° North 438 504 27,400 1,860 Climbing Los Angeles Center
02:22PM 35.1433 -118.9886 341° North 476 548 29,300 2,160 Climbing Los Angeles Center
02:23PM 35.2522 -119.0681 329° Northwest 466 536 32,000 1,920 Climbing Los Angeles Center
02:24PM 35.3617 -119.1472 329° Northwest 458 527 33,300 1,200 Climbing Los Angeles Center
02:25PM 35.4981 -119.2500 328° Northwest 475 547 34,500 1,320 Climbing Los Angeles Center
02:26PM 35.6150 -119.3356 329° Northwest 487 560 36,100 1,560 Climbing Los Angeles Center
02:27PM 35.7292 -119.4217 329° Northwest 487 560 37,800 1,500 Climbing Los Angeles Center
02:28PM 35.8417 -119.5072 328° Northwest 481 554 39,200 1,020 Climbing Los Angeles Center
02:29PM 35.9589 -119.5775 334° Northwest 480 552 40,000 360 Climbing Los Angeles Center
02:30PM 36.0875 -119.6111 348° North 478 550 40,000  Level Los Angeles Center
02:31PM 36.2408 -119.6528 348° North 472 543 40,000  Level Los Angeles Center
02:32PM 36.3439 -119.6808 348° North 474 545 40,000  Level Los Angeles Center
02:34PM 36.5456 -119.7322 348° North 468 539 40,000  Level Oakland Center
02:35PM 36.6742 -119.7683 347° North 473 544 40,000  Level Oakland Center
02:36PM 36.8000 -119.8014 348° North 466 536 40,000  Level Oakland Center
02:37PM 36.9261 -119.8342 348° North 465 535 40,000  Level Oakland Center
02:38PM 37.0531 -119.8689 348° North 468 539 40,000  Level Oakland Center
02:39PM 37.1897 -119.9067 348° North 462 532 40,000  Level Oakland Center
02:40PM 37.3150 -119.9422 347° North 463 533 40,000  Level Oakland Center
02:41PM 37.4428 -119.9772 348° North 466 536 40,000  Level Oakland Center
02:42PM 37.5944 -120.0183 348° North 467 537 40,000  Level Oakland Center
02:43PM 37.7217 -120.0536 348° North 467 537 40,000  Level Oakland Center
02:44PM 37.8486 -120.0889 348° North 468 539 40,000  Level Oakland Center
02:45PM 37.9750 -120.1253 347° North 467 537 40,000  Level Oakland Center
02:46PM 38.1014 -120.1606 348° North 466 536 40,000  Level Oakland Center
02:47PM 38.2278 -120.1958 348° North 465 535 40,000  Level Oakland Center
02:48PM 38.3775 -120.2389 347° North 461 531 40,000  Level Oakland Center
02:49PM 38.5022 -120.2747 347° North 460 529 40,000  Level Oakland Center
02:50PM 38.6275 -120.3097 348° North 461 531 40,000  Level Oakland Center
02:51PM 38.7511 -120.3453 347° North 457 526 40,000  Level Oakland Center
02:52PM 38.8753 -120.3825 347° North 460 529 40,000  Level Oakland Center
02:53PM 38.9989 -120.4175 348° North 456 525 40,000  Level Oakland Center
02:54PM 39.1233 -120.4542 347° North 458 527 40,000  Level Oakland Center
02:55PM 39.2717 -120.4961 348° North 457 526 40,000  Level Oakland Center
02:56PM 39.3933 -120.5325 347° North 450 518 40,000  Level Oakland Center
02:57PM 39.5169 -120.5686 347° North 453 521 40,000  Level Oakland Center
02:58PM 39.6389 -120.6042 347° North 452 520 40,000  Level Oakland Center
02:59PM 39.7611 -120.6419 347° North 451 519 40,000  Level Oakland Center
03:00PM 39.8836 -120.6775 347° North 450 518 40,000  Level Oakland Center
03:01PM 40.0258 -120.7206 347° North 457 526 40,000  Level Oakland Center
03:02PM 40.1381 -120.7514 348° North 459 528 40,000  Level Seattle Center
03:03PM 40.2617 -120.7883 347° North 457 526 40,000  Level Seattle Center
03:04PM 40.3853 -120.8256 347° North 458 527 40,000  Level Seattle Center
03:05PM 40.5306 -120.8717 346° North 451 519 40,000  Level Oakland Center
03:06PM 40.6300 -120.9008 347° North 456 525 40,000  Level Seattle Center
03:07PM 40.7511 -120.9369 347° North 451 519 40,000  Level Seattle Center
03:08PM 40.8989 -120.9819 347° North 454 522 40,000  Level Seattle Center
03:09PM 41.0133 -121.0181 347° North 454 522 40,000  Level Seattle Center
03:10PM 41.1317 -121.0536 347° North 453 521 40,000  Level Seattle Center
03:11PM 41.2667 -121.0967 347° North 454 522 40,000  Level Seattle Center
03:13PM 41.3886 -121.1350 347° North 452 520 40,000  Level Seattle Center
03:14PM 41.5122 -121.1728 347° North 456 525 40,000  Level Seattle Center
03:15PM 41.6350 -121.2111 347° North 456 525 40,000  Level Seattle Center
03:16PM 41.7567 -121.2478 347° North 451 519 40,000  Level Seattle Center
03:17PM 41.9039 -121.2936 347° North 454 522 40,000  Level Seattle Center
03:18PM 42.0275 -121.3322 347° North 457 526 40,000  Level Seattle Center
03:19PM 42.1508 -121.3719 347° North 458 527 40,000  Level Seattle Center
03:20PM 42.2764 -121.4142 346° North 469 540 40,000  Level Seattle Center
03:21PM 42.4039 -121.4536 347° North 473 544 40,000  Level Seattle Center
03:22PM 42.5303 -121.4956 346° North 470 541 40,000  Level Seattle Center
03:23PM 42.6564 -121.5369 346° North 468 539 40,000  Level Seattle Center
03:24PM 42.8033 -121.5831 347° North 469 540 40,000  Level Seattle Center
03:25PM 42.9308 -121.6253 346° North 472 543 40,000  Level Seattle Center
03:26PM 43.0628 -121.6700 346° North 469 540 40,000  Level Seattle Center
03:27PM 43.1906 -121.7097 347° North 472 543 40,000  Level Seattle Center
03:28PM 43.3286 -121.7581 346° North 475 547 40,000  Level Seattle Center
03:29PM 43.4583 -121.8003 347° North 476 548 40,000  Level Seattle Center
03:30PM 43.5883 -121.8439 346° North 479 551 40,000  Level Seattle Center
03:31PM 43.7258 -121.8881 347° North 478 550 40,000  Level Seattle Center
03:32PM 43.8550 -121.9311 346° North 476 548 40,000  Level Seattle Center
03:33PM 43.9836 -121.9739 347° North 476 548 40,000  Level Seattle Center
03:34PM 44.1108 -122.0181 346° North 473 544 40,000  Level Seattle Center
03:35PM 44.2400 -122.0631 346° North 476 548 40,000  Level Seattle Center
03:36PM 44.3692 -122.1058 347° North 478 550 40,000  Level Seattle Center
03:37PM 44.4975 -122.1503 346° North 476 548 40,000  Level Seattle Center
03:38PM 44.6264 -122.1944 346° North 477 549 40,000  Level Seattle Center
03:39PM 44.7792 -122.2481 346° North 475 547 40,000  Level Seattle Center
03:40PM 44.8856 -122.2856 346° North 473 544 40,000  Level Seattle Center
03:41PM 45.0361 -122.3389 346° North 469 540 40,000  Level Seattle Center
03:42PM 45.1631 -122.3839 346° North 472 543 40,000  Level Seattle Center
03:43PM 45.2892 -122.4261 347° North 471 542 40,000  Level Seattle Center
03:44PM 45.4144 -122.4725 345° North 466 536 40,000 -840 Level Seattle Center
03:45PM 45.5403 -122.5175 346° North 468 539 38,400 -2,160 Descending Seattle Center
03:46PM 45.6647 -122.5619 346° North 465 535 35,600 -3,000 Descending Seattle Center
03:47PM 45.7933 -122.6019 348° North 473 544 32,300 -3,300 Descending Seattle Center
03:48PM 45.9267 -122.6339 351° North 485 558 28,900 -2,880 Descending Seattle Center
03:49PM 46.0808 -122.6722 350° North 473 544 26,400 -2,220 Descending Seattle Center
03:50PM 46.2011 -122.7006 351° North 450 518 24,400 -2,400 Descending Seattle Center
03:51PM 46.3219 -122.7225 353° North 418 481 21,500 -2,760 Descending Seattle Center
03:52PM 46.4308 -122.7222 360° North 401 461 18,800 -2,400 Descending Seattle Center
03:53PM 46.5383 -122.7131 North 390 449 16,700 -2,040 Descending Seattle Center
03:54PM 46.6400 -122.7094 North 371 427 14,700 -2,040 Descending Seattle Center
03:55PM 46.7142 -122.7083 North 363 418 13,200 -2,160 Descending Seattle Center
03:56PM 46.7669 -122.7061 North 354 407 12,200 -1,980 Descending Seattle Center
03:57PM 46.8428 -122.6711 18° North 345 397 10,600 -1,200 Descending Seattle Center
03:58PM 46.9086 -122.5789 44° Northeast 324 373 10,000 -1,020 Descending Seattle Center
04:00PM 47.0533 -122.4086 39° Northeast 265 305 7,200 -1,200 Descending Seattle Center
04:01PM 47.0992 -122.3747 27° Northeast 262 302 6,400 -840 Descending Seattle Center
04:02PM 47.1625 -122.3394 21° North 240 276 5,800 -1,020 Descending Seattle Center
04:03PM 47.2267 -122.3181 13° North 222 255 4,400 -1,260 Descending Seattle Center
04:04PM 47.2881 -122.3192 359° North 218 251 3,300 -1,080 Descending Seattle Center
04:05PM 47.3439 -122.3189 360° North 204 235 2,200 -960 Descending Seattle Center
04:06PM 47.3933 -122.3203 359° North 149 171 1,300 -840 Descending Seattle Center
04:07PM 47.4286 -122.3183 North 137 158 600 -540 Descending Seattle Center
04:08PM 47.4653 -122.3186 360° North 135 155 300 -300 Descending Seattle Center